createdAt,value
2022-12-22T00:01:57.930Z,93.57
2022-12-22T00:04:43.772Z,93.57
2022-12-22T00:07:29.510Z,96.30
2022-12-22T00:10:15.402Z,92.70
2022-12-22T00:13:00.964Z,95.47
2022-12-22T00:15:51.929Z,90.63
2022-12-22T00:18:37.660Z,92.73
2022-12-22T00:21:23.608Z,89.30
2022-12-22T00:24:09.357Z,92.53
2022-12-22T00:26:55.255Z,92.57
2022-12-22T00:29:40.880Z,93.33
2022-12-22T00:32:32.732Z,98.57
2022-12-22T00:35:18.961Z,96.53
2022-12-22T00:38:04.738Z,98.67
2022-12-22T00:40:50.469Z,95.07
2022-12-22T00:43:35.946Z,97.87
2022-12-22T00:46:22.674Z,95.57
2022-12-22T00:49:09.018Z,94.33
2022-12-22T00:51:54.525Z,90.97
2022-12-22T00:54:41.225Z,90.87
2022-12-22T00:57:38.189Z,91.33
2022-12-22T01:00:25.869Z,90.07
2022-12-22T01:03:11.504Z,85.30
2022-12-22T01:05:57.222Z,85.47
2022-12-22T01:08:42.729Z,85.33
2022-12-22T01:11:28.182Z,80.90
2022-12-22T01:14:13.779Z,77.93
2022-12-22T01:16:59.318Z,75.70
2022-12-22T01:19:45.091Z,76.57
2022-12-22T01:22:34.421Z,74.43
2022-12-22T01:25:20.200Z,74.17
2022-12-22T01:28:05.948Z,73.73
2022-12-22T01:30:51.524Z,73.93
2022-12-22T01:33:37.204Z,68.20
2022-12-22T01:36:23.252Z,71.83
2022-12-22T01:39:09.034Z,70.93
2022-12-22T01:41:54.794Z,73.73
2022-12-22T01:44:40.681Z,73.03
2022-12-22T01:47:48.099Z,73.97
2022-12-22T01:50:35.622Z,69.53
2022-12-22T01:53:23.691Z,70.67
2022-12-22T01:56:09.239Z,70.27
2022-12-22T01:59:01.187Z,67.23
2022-12-22T02:01:49.183Z,66.10
2022-12-22T02:04:37.307Z,70.60
2022-12-22T02:07:33.992Z,70.80
2022-12-22T02:10:28.645Z,66.10
2022-12-22T02:13:23.110Z,67.20
2022-12-22T02:16:20.710Z,67.03
2022-12-22T02:19:15.576Z,66.87
2022-12-22T02:22:27.410Z,66.67
2022-12-22T02:25:25.249Z,61.90
2022-12-22T02:28:13.830Z,64.43
2022-12-22T02:31:01.224Z,66.27
2022-12-22T02:33:46.966Z,65.70
2022-12-22T02:36:41.968Z,62.30
2022-12-22T02:39:48.633Z,61.90
2022-12-22T02:42:37.281Z,62.60
2022-12-22T02:45:48.918Z,61.53
2022-12-22T02:49:06.777Z,60.00
2022-12-22T02:51:54.749Z,61.10
2022-12-22T02:54:42.355Z,63.50
2022-12-22T02:57:28.031Z,63.43
2022-12-22T03:00:13.621Z,63.07
2022-12-22T03:02:59.427Z,64.53
2022-12-22T03:05:44.925Z,64.07
2022-12-22T03:08:30.644Z,67.60
2022-12-22T03:11:16.384Z,69.77
2022-12-22T03:14:03.026Z,69.83
2022-12-22T03:16:48.952Z,68.30
2022-12-22T03:19:34.527Z,76.70
2022-12-22T03:22:20.218Z,77.50
2022-12-22T03:25:06.250Z,76.27
2022-12-22T03:27:33.388Z,77.33
2022-12-22T03:30:00.462Z,82.60
2022-12-22T03:32:27.479Z,82.07
2022-12-22T03:34:54.500Z,82.67
2022-12-22T03:37:21.481Z,83.07
2022-12-22T03:39:48.452Z,84.43
2022-12-22T03:42:34.313Z,83.67
2022-12-22T03:45:19.794Z,79.30
2022-12-22T03:47:47.554Z,79.40
2022-12-22T03:50:14.601Z,83.13
2022-12-22T03:52:41.574Z,83.60
2022-12-22T03:55:09.054Z,83.13
2022-12-22T03:57:36.385Z,79.60
2022-12-22T04:00:04.580Z,74.80
2022-12-22T04:02:39.033Z,72.93
2022-12-22T04:05:06.651Z,73.93
2022-12-22T04:07:33.841Z,72.80
2022-12-22T04:10:19.180Z,68.60
2022-12-22T04:12:55.307Z,65.17
2022-12-22T04:15:27.985Z,63.60
2022-12-22T04:17:55.800Z,64.63
2022-12-22T04:20:26.865Z,61.70
2022-12-22T04:22:57.530Z,62.00
2022-12-22T04:25:25.946Z,60.33
2022-12-22T04:27:53.046Z,59.30
2022-12-22T04:30:20.085Z,60.37
2022-12-22T04:32:47.229Z,61.60
2022-12-22T04:35:14.321Z,60.17
2022-12-22T04:37:41.278Z,62.13
2022-12-22T04:40:08.730Z,60.53
2022-12-22T04:42:35.833Z,60.03
2022-12-22T04:45:03.049Z,63.57
2022-12-22T04:47:30.046Z,61.80
2022-12-22T04:49:57.111Z,63.10
2022-12-22T04:52:24.139Z,61.33
2022-12-22T04:54:51.115Z,59.80
2022-12-22T04:57:18.431Z,60.93
2022-12-22T04:59:45.526Z,60.00
2022-12-22T05:02:12.786Z,59.70
2022-12-22T05:04:39.933Z,60.00
2022-12-22T05:07:07.895Z,59.80
2022-12-22T05:09:35.325Z,59.80
2022-12-22T05:12:22.361Z,59.00
2022-12-22T05:14:49.852Z,59.23
2022-12-22T05:17:16.957Z,57.70
2022-12-22T05:19:44.038Z,56.13
2022-12-22T05:22:11.385Z,56.40
2022-12-22T05:24:38.317Z,56.67
2022-12-22T05:27:05.538Z,56.70
2022-12-22T05:29:32.609Z,56.03
2022-12-22T05:31:59.827Z,56.37
2022-12-22T05:34:26.966Z,55.43
2022-12-22T05:36:54.020Z,56.10
2022-12-22T05:39:20.980Z,56.00
2022-12-22T05:41:48.048Z,57.30
2022-12-22T05:44:15.050Z,55.93
2022-12-22T05:46:42.088Z,57.67
2022-12-22T05:49:09.313Z,58.13
2022-12-22T05:51:36.424Z,56.50
2022-12-22T05:54:03.656Z,57.63
2022-12-22T05:56:30.682Z,57.13
2022-12-22T05:58:57.642Z,58.23
2022-12-22T06:01:24.894Z,57.77
2022-12-22T06:03:57.723Z,60.23
2022-12-22T06:06:26.860Z,60.90
2022-12-22T06:08:54.076Z,58.77
2022-12-22T06:11:21.195Z,61.87
2022-12-22T06:13:49.503Z,64.03
2022-12-22T06:16:16.671Z,61.20
2022-12-22T06:18:43.783Z,66.57
2022-12-22T06:21:10.966Z,65.37
2022-12-22T06:23:37.942Z,68.10
2022-12-22T06:26:05.014Z,69.37
2022-12-22T06:28:32.141Z,69.00
2022-12-22T06:30:59.225Z,64.43
2022-12-22T06:33:26.400Z,63.03
2022-12-22T06:35:58.711Z,62.97
2022-12-22T06:38:27.739Z,60.30
2022-12-22T06:40:54.738Z,59.93
2022-12-22T06:43:21.995Z,60.30
2022-12-22T06:45:48.971Z,59.37
2022-12-22T06:48:16.187Z,55.17
2022-12-22T06:50:43.251Z,58.30
2022-12-22T06:53:11.693Z,57.60
2022-12-22T06:55:39.223Z,53.87
2022-12-22T06:58:06.850Z,57.73
2022-12-22T07:00:34.132Z,55.43
2022-12-22T07:03:01.484Z,57.70
2022-12-22T07:05:30.511Z,55.10
2022-12-22T07:08:01.149Z,61.00
2022-12-22T07:10:51.745Z,64.97
2022-12-22T07:13:21.765Z,67.13
2022-12-22T07:15:57.255Z,71.93
2022-12-22T07:18:28.088Z,73.83
2022-12-22T07:20:55.397Z,75.37
2022-12-22T07:23:22.605Z,72.93
2022-12-22T07:25:49.605Z,74.20
2022-12-22T07:28:20.676Z,74.17
2022-12-22T07:30:49.896Z,74.57
2022-12-22T07:33:17.991Z,73.47
2022-12-22T07:35:45.443Z,82.13
2022-12-22T07:38:12.811Z,83.73
2022-12-22T07:40:42.461Z,82.20
2022-12-22T07:43:10.660Z,83.13
2022-12-22T07:45:38.444Z,78.30
2022-12-22T07:48:25.725Z,81.60
2022-12-22T07:50:53.079Z,76.33
2022-12-22T07:53:20.213Z,77.47
2022-12-22T07:55:47.428Z,75.37
2022-12-22T07:58:14.424Z,75.30
2022-12-22T08:00:41.374Z,75.37
2022-12-22T08:03:09.703Z,71.67
2022-12-22T08:05:38.081Z,73.90
2022-12-22T08:08:05.441Z,74.83
2022-12-22T08:10:32.963Z,71.93
2022-12-22T08:13:00.015Z,68.43
2022-12-22T08:15:27.086Z,66.93
2022-12-22T08:17:54.244Z,67.33
2022-12-22T08:20:21.229Z,65.23
2022-12-22T08:22:48.211Z,67.07
2022-12-22T08:25:15.262Z,65.83
2022-12-22T08:27:48.091Z,63.17
2022-12-22T08:30:15.540Z,64.07
2022-12-22T08:32:43.704Z,64.57
2022-12-22T08:35:11.025Z,60.43
2022-12-22T08:37:42.212Z,61.77
2022-12-22T08:40:14.605Z,60.63
2022-12-22T08:42:42.646Z,63.30
2022-12-22T08:45:11.350Z,67.10
2022-12-22T08:47:38.789Z,63.40
2022-12-22T08:50:06.610Z,57.53
2022-12-22T08:52:33.556Z,57.70
2022-12-22T08:55:00.603Z,56.13
2022-12-22T08:57:27.724Z,60.43
2022-12-22T08:59:54.781Z,60.93
2022-12-22T09:02:22.403Z,60.23
2022-12-22T09:04:49.557Z,64.83
2022-12-22T09:07:16.762Z,66.20
2022-12-22T09:09:44.680Z,64.00
2022-12-22T09:12:12.325Z,64.10
2022-12-22T09:14:39.309Z,64.80
2022-12-22T09:17:06.381Z,64.87
2022-12-22T09:19:33.526Z,65.43
2022-12-22T09:22:00.566Z,65.10
2022-12-22T09:24:27.595Z,65.20
2022-12-22T09:26:54.634Z,73.10
2022-12-22T09:29:21.839Z,66.43
2022-12-22T09:31:48.948Z,62.93
2022-12-22T09:34:18.509Z,60.23
2022-12-22T09:36:46.641Z,59.60
2022-12-22T09:39:16.967Z,57.00
2022-12-22T09:41:54.553Z,55.53
2022-12-22T09:44:24.334Z,51.83
2022-12-22T09:46:55.746Z,53.87
2022-12-22T09:49:23.478Z,53.93
2022-12-22T09:51:56.123Z,54.63
2022-12-22T09:54:24.507Z,56.00
2022-12-22T09:56:51.627Z,54.67
2022-12-22T09:59:20.556Z,54.07
2022-12-22T10:01:56.211Z,50.97
2022-12-22T10:04:36.764Z,52.15
2022-12-22T10:07:31.790Z,53.55
2022-12-22T10:10:17.373Z,53.38
2022-12-22T10:12:44.781Z,55.47
2022-12-22T10:15:18.332Z,55.13
2022-12-22T10:17:51.829Z,54.10
2022-12-22T10:20:22.052Z,55.08
2022-12-22T10:22:58.726Z,55.38
2022-12-22T10:25:45.065Z,54.38
2022-12-22T10:28:23.603Z,53.53
2022-12-22T10:31:08.779Z,55.75
2022-12-22T10:33:41.190Z,55.97
2022-12-22T10:36:12.816Z,53.53
2022-12-22T10:38:54.069Z,53.50
2022-12-22T10:41:23.649Z,54.22
2022-12-22T10:43:57.837Z,55.47
2022-12-22T10:46:47.752Z,55.00
2022-12-22T10:49:20.723Z,53.47
2022-12-22T10:51:53.936Z,52.38
2022-12-22T10:54:36.240Z,52.78
2022-12-22T10:57:25.801Z,52.47
2022-12-22T10:59:54.331Z,54.05
2022-12-22T11:02:21.542Z,53.97
2022-12-22T11:04:50.329Z,52.85
2022-12-22T11:07:17.685Z,51.40
2022-12-22T11:09:44.923Z,52.13
2022-12-22T11:12:48.829Z,53.67
2022-12-22T11:15:42.111Z,51.90
2022-12-22T11:18:18.546Z,51.33
2022-12-22T11:21:22.019Z,51.22
2022-12-22T11:24:11.714Z,52.38
2022-12-22T11:26:55.653Z,52.42
2022-12-22T11:29:50.063Z,52.03
2022-12-22T11:33:04.834Z,53.10
2022-12-22T11:36:01.193Z,50.97
2022-12-22T11:38:48.835Z,54.97
2022-12-22T11:41:49.323Z,51.88
2022-12-22T11:44:16.316Z,53.05
2022-12-22T11:47:02.347Z,53.47
2022-12-22T11:49:53.833Z,50.72
2022-12-22T11:52:57.759Z,52.15
2022-12-22T11:55:44.909Z,51.75
2022-12-22T11:58:23.272Z,52.05
2022-12-22T12:01:16.627Z,52.70
2022-12-22T12:04:07.600Z,50.40
2022-12-22T12:06:47.871Z,51.30
2022-12-22T12:09:32.599Z,53.40
2022-12-22T12:12:41.690Z,54.30
2022-12-22T12:15:32.106Z,52.40
2022-12-22T12:18:24.099Z,50.42
2022-12-22T12:21:23.480Z,48.22
2022-12-22T12:24:25.785Z,48.78
2022-12-22T12:27:13.979Z,49.88
2022-12-22T12:30:13.408Z,50.17
2022-12-22T12:33:02.979Z,51.08
2022-12-22T12:35:48.448Z,51.85
2022-12-22T12:41:38.865Z,51.17
2022-12-22T12:44:09.493Z,52.30
2022-12-22T12:46:51.682Z,53.63
2022-12-22T12:49:36.725Z,52.78
2022-12-22T12:52:07.634Z,53.22
2022-12-22T12:54:42.037Z,51.33
2022-12-22T12:57:45.515Z,52.30
2022-12-22T13:00:47.887Z,51.17
2022-12-22T13:04:02.433Z,49.63
2022-12-22T13:06:51.042Z,50.05
2022-12-22T13:09:49.737Z,52.28
2022-12-22T13:12:38.974Z,50.22
2022-12-22T13:15:39.349Z,53.53
2022-12-22T13:18:29.459Z,53.58
2022-12-22T13:21:50.952Z,56.78
2022-12-22T13:24:22.714Z,57.30
2022-12-22T13:26:44.600Z,57.17
2022-12-22T13:29:32.084Z,56.65
2022-12-22T13:32:14.227Z,57.13
2022-12-22T13:35:38.713Z,57.35
2022-12-22T13:38:06.912Z,55.80
2022-12-22T13:40:44.223Z,57.28
2022-12-22T13:43:14.950Z,56.30
2022-12-22T13:45:44.635Z,51.65
2022-12-22T13:48:25.443Z,48.58
2022-12-22T13:50:59.453Z,49.78
2022-12-22T13:56:26.331Z,56.13
2022-12-22T13:58:58.707Z,58.70
2022-12-22T14:01:26.196Z,57.83
2022-12-22T14:04:16.575Z,58.75
2022-12-22T14:06:43.945Z,59.20
2022-12-22T14:09:12.243Z,59.03
2022-12-22T14:11:42.791Z,50.47
2022-12-22T14:14:19.736Z,50.30
2022-12-22T14:16:49.700Z,48.88
2022-12-22T14:19:22.326Z,49.92
2022-12-22T14:21:58.953Z,47.30
2022-12-22T14:24:32.040Z,46.83
2022-12-22T14:27:02.643Z,43.67
2022-12-22T14:29:31.162Z,44.13
2022-12-22T14:32:03.001Z,40.67
2022-12-22T14:34:33.088Z,37.33
2022-12-22T14:37:01.879Z,30.35
2022-12-22T14:39:31.992Z,26.27
2022-12-22T14:42:11.445Z,23.15
2022-12-22T14:44:48.934Z,22.90
2022-12-22T14:47:19.754Z,22.42
2022-12-22T14:50:04.608Z,23.20
2022-12-22T14:52:45.635Z,22.23
2022-12-22T14:55:42.427Z,26.92
2022-12-22T14:58:21.773Z,38.50
2022-12-22T15:01:10.288Z,37.65
2022-12-22T15:03:38.839Z,33.22
2022-12-22T15:06:27.294Z,31.25
2022-12-22T15:09:09.042Z,33.47
2022-12-22T15:11:38.781Z,32.58
2022-12-22T15:14:06.081Z,26.15
2022-12-22T15:16:33.210Z,23.65
2022-12-22T15:19:00.239Z,24.65
2022-12-22T15:21:27.263Z,23.48
2022-12-22T15:23:54.385Z,24.23
2022-12-22T15:26:21.447Z,24.73
2022-12-22T15:28:48.782Z,22.27
2022-12-22T15:31:17.357Z,22.30
2022-12-22T15:33:45.401Z,26.08
2022-12-22T15:36:14.061Z,22.98
2022-12-22T15:38:42.141Z,21.65
2022-12-22T15:41:09.243Z,22.80
2022-12-22T15:43:57.378Z,18.77
2022-12-22T15:46:24.744Z,17.40
2022-12-22T15:48:52.553Z,15.65
2022-12-22T15:51:28.427Z,15.90
2022-12-22T15:53:56.988Z,14.13
2022-12-22T15:56:26.447Z,14.43
2022-12-22T15:58:53.829Z,14.65
2022-12-22T16:01:21.178Z,15.68
2022-12-22T16:03:48.437Z,14.10
2022-12-22T16:06:17.825Z,13.02
2022-12-22T16:08:50.729Z,13.10
2022-12-22T16:11:18.371Z,12.43
2022-12-22T16:13:46.379Z,11.88
2022-12-22T16:16:13.533Z,10.50
2022-12-22T16:18:40.623Z,10.07
2022-12-22T16:21:14.402Z,9.20
2022-12-22T16:23:43.677Z,8.77
2022-12-22T16:26:17.683Z,8.48
2022-12-22T16:28:44.835Z,8.80
2022-12-22T16:31:18.842Z,8.55
2022-12-22T16:33:45.966Z,8.85
2022-12-22T16:36:14.091Z,8.68
2022-12-22T16:38:41.484Z,9.23
2022-12-22T16:41:19.724Z,8.93
2022-12-22T16:46:33.515Z,9.40
2022-12-22T16:49:01.647Z,10.13
2022-12-22T16:51:36.897Z,9.73
2022-12-22T16:54:04.702Z,9.88
2022-12-22T16:56:32.237Z,9.73
2022-12-22T16:59:00.969Z,9.50
2022-12-22T17:01:38.898Z,9.95
2022-12-22T17:04:41.617Z,8.88
2022-12-22T17:07:10.312Z,8.93
2022-12-22T17:09:48.169Z,8.73
2022-12-22T17:12:22.216Z,8.80
2022-12-22T17:14:51.688Z,9.13
2022-12-22T17:17:30.360Z,7.95
2022-12-22T17:19:59.343Z,7.88
2022-12-22T17:22:29.181Z,7.28
2022-12-22T17:24:59.144Z,7.63
2022-12-22T17:27:31.723Z,7.78
2022-12-22T17:30:03.335Z,7.47
2022-12-22T17:32:30.345Z,7.32
2022-12-22T17:34:57.814Z,7.70
2022-12-22T17:37:24.916Z,8.20
2022-12-22T17:39:57.090Z,8.00
2022-12-22T17:42:24.916Z,8.30
2022-12-22T17:44:52.776Z,8.48
2022-12-22T17:47:26.869Z,8.32
2022-12-22T17:49:58.758Z,8.65
2022-12-22T17:52:28.170Z,8.68
2022-12-22T17:54:55.518Z,8.63
2022-12-22T17:57:29.838Z,8.07
2022-12-22T17:59:56.900Z,7.90
2022-12-22T18:02:25.765Z,7.85
2022-12-22T18:04:53.427Z,8.55
2022-12-22T18:07:23.853Z,9.82
2022-12-22T18:09:55.389Z,12.18
2022-12-22T18:12:27.195Z,9.13
2022-12-22T18:14:54.319Z,8.85
2022-12-22T18:17:28.631Z,9.05
2022-12-22T18:20:00.493Z,8.77
2022-12-22T18:22:29.630Z,8.93
2022-12-22T18:24:57.458Z,8.85
2022-12-22T18:27:24.623Z,7.72
2022-12-22T18:29:51.705Z,8.15
2022-12-22T18:32:26.331Z,8.57
2022-12-22T18:34:54.504Z,8.98
2022-12-22T18:37:21.565Z,8.50
2022-12-22T18:39:48.696Z,9.45
2022-12-22T18:42:23.563Z,8.85
2022-12-22T18:44:51.479Z,9.75
2022-12-22T18:47:18.886Z,8.05
2022-12-22T18:49:46.355Z,8.98
2022-12-22T18:52:18.978Z,8.30
2022-12-22T18:54:46.393Z,9.05
2022-12-22T18:57:19.932Z,9.98
2022-12-22T18:59:48.296Z,9.55
2022-12-22T19:02:28.846Z,10.52
2022-12-22T19:04:57.078Z,10.02
2022-12-22T19:07:25.845Z,10.23
2022-12-22T19:09:53.203Z,11.00
2022-12-22T19:12:23.379Z,10.68
2022-12-22T19:14:54.212Z,10.30
2022-12-22T19:17:27.946Z,10.95
2022-12-22T19:19:55.580Z,9.82
2022-12-22T19:22:22.615Z,10.13
2022-12-22T19:24:50.357Z,10.05
2022-12-22T19:27:23.966Z,9.82
2022-12-22T19:29:58.855Z,10.30
2022-12-22T19:32:38.823Z,10.93
2022-12-22T19:35:13.571Z,9.68
2022-12-22T19:37:40.636Z,10.00
2022-12-22T19:40:08.257Z,9.88
2022-12-22T19:42:35.862Z,9.95
2022-12-22T19:45:10.236Z,9.45
2022-12-22T19:47:38.587Z,10.65
2022-12-22T19:50:27.684Z,10.10
2022-12-22T19:52:56.194Z,9.70
2022-12-22T19:55:27.096Z,10.18
2022-12-22T19:57:54.884Z,9.30
2022-12-22T20:00:25.016Z,9.43
2022-12-22T20:02:55.629Z,9.23
2022-12-22T20:05:22.812Z,8.30
2022-12-22T20:07:55.380Z,8.63
2022-12-22T20:10:23.475Z,9.05
2022-12-22T20:12:55.026Z,8.32
2022-12-22T20:15:26.557Z,8.95
2022-12-22T20:17:55.285Z,9.10
2022-12-22T20:20:26.588Z,9.35
2022-12-22T20:22:56.777Z,9.68
2022-12-22T20:25:26.737Z,9.52
2022-12-22T20:27:55.559Z,9.55
2022-12-22T20:30:25.414Z,9.82
2022-12-22T20:32:53.241Z,9.25
2022-12-22T20:35:20.960Z,9.63
2022-12-22T20:37:48.879Z,9.52
2022-12-22T20:40:32.092Z,9.60
2022-12-22T20:42:59.176Z,9.55
2022-12-22T20:45:30.886Z,8.93
2022-12-22T20:47:59.889Z,10.27
2022-12-22T20:50:29.611Z,9.40
2022-12-22T20:52:57.349Z,9.32
2022-12-22T20:55:26.913Z,9.65
2022-12-22T20:57:54.811Z,9.80
2022-12-22T21:00:25.471Z,10.00
2022-12-22T21:02:53.081Z,16.48
2022-12-22T21:05:21.196Z,12.55
2022-12-22T21:07:49.338Z,10.40
2022-12-22T21:10:24.455Z,9.38
2022-12-22T21:12:51.547Z,8.63
2022-12-22T21:15:24.796Z,9.05
2022-12-22T21:17:58.104Z,8.77
2022-12-22T21:20:28.457Z,8.55
2022-12-22T21:22:55.472Z,8.40
2022-12-22T21:25:23.432Z,8.13
2022-12-22T21:27:52.323Z,7.75
2022-12-22T21:30:25.249Z,8.68
2022-12-22T21:32:53.952Z,8.38
2022-12-22T21:35:33.581Z,8.70
2022-12-22T21:38:00.819Z,8.73
2022-12-22T21:40:30.334Z,8.52
2022-12-22T21:42:58.162Z,9.00
2022-12-22T21:45:28.561Z,8.40
2022-12-22T21:47:56.048Z,9.15
2022-12-22T21:50:27.067Z,8.80
2022-12-22T21:52:54.404Z,9.88
2022-12-22T21:55:42.173Z,9.02
2022-12-22T21:58:13.211Z,9.20
2022-12-22T22:00:43.760Z,9.32
2022-12-22T22:03:11.417Z,9.77
2022-12-22T22:05:39.919Z,8.40
2022-12-22T22:08:09.234Z,8.98
2022-12-22T22:10:42.501Z,9.30
2022-12-22T22:13:14.806Z,8.85
2022-12-22T22:15:42.311Z,9.60
2022-12-22T22:18:15.567Z,9.18
2022-12-22T22:20:42.803Z,9.77
2022-12-22T22:23:12.736Z,9.75
2022-12-22T22:25:40.192Z,10.52
2022-12-22T22:28:07.371Z,9.75
2022-12-22T22:30:34.331Z,9.75
2022-12-22T22:33:01.389Z,9.33
2022-12-22T22:35:28.421Z,9.85
2022-12-22T22:37:56.015Z,9.52
2022-12-22T22:40:24.176Z,9.30
2022-12-22T22:42:51.133Z,9.43
2022-12-22T22:45:24.328Z,9.38
2022-12-22T22:47:52.753Z,9.70
2022-12-22T22:50:21.357Z,8.90
2022-12-22T22:52:49.232Z,8.60
2022-12-22T22:55:16.478Z,9.20
2022-12-22T22:57:43.664Z,9.10
2022-12-22T23:00:12.994Z,10.25
2022-12-22T23:02:40.404Z,10.02
2022-12-22T23:05:08.149Z,9.40
2022-12-22T23:07:36.144Z,9.60
2022-12-22T23:10:03.972Z,10.00
2022-12-22T23:12:31.547Z,9.37
2022-12-22T23:14:58.647Z,9.65
2022-12-22T23:17:25.756Z,9.40
2022-12-22T23:19:52.721Z,8.98
2022-12-22T23:22:19.821Z,9.68
2022-12-22T23:24:46.962Z,8.75
2022-12-22T23:27:14.408Z,8.75
2022-12-22T23:29:41.379Z,9.10
2022-12-22T23:32:08.354Z,9.00
2022-12-22T23:34:36.373Z,9.15
2022-12-22T23:37:04.202Z,8.75
2022-12-22T23:39:31.286Z,9.32
2022-12-22T23:41:58.335Z,9.13
2022-12-22T23:44:25.484Z,8.43
2022-12-22T23:46:52.564Z,7.78
2022-12-22T23:49:19.607Z,8.75
2022-12-22T23:51:47.214Z,8.52
2022-12-22T23:54:14.264Z,7.75
2022-12-22T23:56:41.257Z,7.80
2022-12-22T23:59:08.739Z,7.28
